CGRPF CYQR-CYQR
Flight info
| Callsign | CGRPF |
|---|---|
| Flight time | 0h 56m |
| Altitude | 5000 |
| Route | VFR IFR PRAC |
| Aircraft | C172/L-SDE3/C |
Departure
| Time | 2026-04-29 01:02 |
|---|---|
| Airport | Regina International Airport (CYQR) |
Arrival
| Time | 2026-04-29 01:58 |
|---|---|
| Airport | Regina International Airport (CYQR) |
| Time | Latitude | Longitude | Altitude | Speed | Heading |
|---|---|---|---|---|---|
| 2026-04-29 00:53 | 50.43106 | -104.65434 | 1887 ft | 0 kts | 138° |
| 2026-04-29 00:57 | 50.43108 | -104.65413 | 1887 ft | 0 kts | 23° |
| 2026-04-29 00:57 | 50.43118 | -104.65417 | 1887 ft | 0 kts | 293° |
| 2026-04-29 01:00 | 50.43123 | -104.65438 | 1887 ft | 5 kts | 281° |
| 2026-04-29 01:00 | 50.43121 | -104.65511 | 1887 ft | 11 kts | 272° |
| 2026-04-29 01:00 | 50.43078 | -104.65595 | 1887 ft | 12 kts | 205° |
| 2026-04-29 01:00 | 50.43046 | -104.65620 | 1887 ft | 0 kts | 206° |
| 2026-04-29 01:01 | 50.43015 | -104.65642 | 1887 ft | 13 kts | 205° |
| 2026-04-29 01:01 | 50.42970 | -104.65756 | 1887 ft | 15 kts | 323° |
| 2026-04-29 01:01 | 50.43106 | -104.65948 | 1887 ft | 47 kts | 319° |
| 2026-04-29 01:01 | 50.43442 | -104.66434 | 1892 ft | 79 kts | 321° |
| 2026-04-29 01:02 | 50.43840 | -104.67083 | 2079 ft | 80 kts | 315° |
| 2026-04-29 01:02 | 50.44196 | -104.67693 | 2335 ft | 71 kts | 316° |
| 2026-04-29 01:02 | 50.44531 | -104.68295 | 2515 ft | 72 kts | 316° |
| 2026-04-29 01:02 | 50.44818 | -104.68899 | 2722 ft | 70 kts | 309° |
| 2026-04-29 01:03 | 50.45109 | -104.69532 | 2882 ft | 74 kts | 307° |
| 2026-04-29 01:03 | 50.45357 | -104.70247 | 3068 ft | 74 kts | 305° |
| 2026-04-29 01:03 | 50.45611 | -104.70932 | 3249 ft | 73 kts | 312° |
| 2026-04-29 01:03 | 50.45965 | -104.71487 | 3442 ft | 70 kts | 317° |
| 2026-04-29 01:04 | 50.46330 | -104.72018 | 3613 ft | 72 kts | 321° |
| 2026-04-29 01:04 | 50.46732 | -104.72446 | 3807 ft | 69 kts | 330° |
| 2026-04-29 01:04 | 50.47154 | -104.72821 | 3989 ft | 68 kts | 330° |
| 2026-04-29 01:04 | 50.47560 | -104.73215 | 4137 ft | 71 kts | 335° |
| 2026-04-29 01:05 | 50.47987 | -104.73573 | 4337 ft | 68 kts | 329° |
| 2026-04-29 01:05 | 50.48375 | -104.74030 | 4498 ft | 70 kts | 322° |
| 2026-04-29 01:05 | 50.48719 | -104.74560 | 4662 ft | 71 kts | 317° |
| 2026-04-29 01:05 | 50.49094 | -104.75061 | 4833 ft | 69 kts | 325° |
| 2026-04-29 01:06 | 50.49488 | -104.75520 | 4959 ft | 72 kts | 324° |
| 2026-04-29 01:06 | 50.49927 | -104.76067 | 4951 ft | 82 kts | 326° |
| 2026-04-29 01:06 | 50.50401 | -104.76595 | 5014 ft | 85 kts | 327° |
| 2026-04-29 01:06 | 50.50908 | -104.77142 | 5025 ft | 91 kts | 326° |
| 2026-04-29 01:07 | 50.51429 | -104.77745 | 5046 ft | 94 kts | 329° |
| 2026-04-29 01:07 | 50.51995 | -104.78260 | 5113 ft | 91 kts | 331° |
| 2026-04-29 01:07 | 50.52581 | -104.78748 | 5086 ft | 97 kts | 339° |
| 2026-04-29 01:07 | 50.53234 | -104.79043 | 5058 ft | 101 kts | 346° |
| 2026-04-29 01:08 | 50.53910 | -104.79319 | 5053 ft | 101 kts | 345° |
| 2026-04-29 01:08 | 50.54597 | -104.79614 | 5029 ft | 101 kts | 343° |
| 2026-04-29 01:08 | 50.55281 | -104.79952 | 4992 ft | 103 kts | 344° |
| 2026-04-29 01:08 | 50.55966 | -104.80260 | 4995 ft | 100 kts | 345° |
| 2026-04-29 01:09 | 50.56652 | -104.80499 | 4966 ft | 102 kts | 344° |
| 2026-04-29 01:09 | 50.57286 | -104.81040 | 4925 ft | 104 kts | 326° |
| 2026-04-29 01:09 | 50.57754 | -104.81885 | 4930 ft | 105 kts | 297° |
| 2026-04-29 01:09 | 50.58009 | -104.82954 | 4954 ft | 103 kts | 291° |
| 2026-04-29 01:10 | 50.58205 | -104.84050 | 4948 ft | 103 kts | 294° |
| 2026-04-29 01:10 | 50.58440 | -104.85092 | 4996 ft | 101 kts | 290° |
| 2026-04-29 01:10 | 50.58719 | -104.86129 | 4950 ft | 104 kts | 308° |
| 2026-04-29 01:10 | 50.59223 | -104.86887 | 5012 ft | 95 kts | 321° |
| 2026-04-29 01:11 | 50.59736 | -104.87545 | 5024 ft | 96 kts | 324° |
| 2026-04-29 01:11 | 50.60321 | -104.88067 | 5055 ft | 95 kts | 333° |
| 2026-04-29 01:11 | 50.60942 | -104.88501 | 5057 ft | 97 kts | 337° |
| 2026-04-29 01:11 | 50.61556 | -104.88886 | 5088 ft | 97 kts | 343° |
| 2026-04-29 01:12 | 50.62233 | -104.89116 | 5074 ft | 100 kts | 350° |
| 2026-04-29 01:12 | 50.62947 | -104.89162 | 5022 ft | 104 kts | 4° |
| 2026-04-29 01:12 | 50.63678 | -104.89004 | 4976 ft | 105 kts | 8° |
| 2026-04-29 01:12 | 50.64394 | -104.88793 | 4962 ft | 104 kts | 9° |
| 2026-04-29 01:13 | 50.65108 | -104.88581 | 4946 ft | 104 kts | 9° |
| 2026-04-29 01:13 | 50.65822 | -104.88412 | 4957 ft | 102 kts | 5° |
| 2026-04-29 01:13 | 50.66533 | -104.88270 | 4931 ft | 103 kts | 6° |
| 2026-04-29 01:13 | 50.67244 | -104.88126 | 4928 ft | 103 kts | 7° |
| 2026-04-29 01:14 | 50.67966 | -104.88024 | 4905 ft | 103 kts | 2° |
| 2026-04-29 01:14 | 50.68672 | -104.88042 | 4942 ft | 98 kts | 358° |
| 2026-04-29 01:14 | 50.69304 | -104.87907 | 5082 ft | 90 kts | 15° |
| 2026-04-29 01:14 | 50.69773 | -104.87225 | 5111 ft | 98 kts | 58° |
| 2026-04-29 01:15 | 50.69825 | -104.86109 | 5117 ft | 107 kts | 97° |
| 2026-04-29 01:15 | 50.69597 | -104.84950 | 5119 ft | 111 kts | 103° |
| 2026-04-29 01:15 | 50.69298 | -104.83821 | 5111 ft | 115 kts | 121° |
| 2026-04-29 01:15 | 50.68634 | -104.83124 | 5111 ft | 118 kts | 165° |
| 2026-04-29 01:16 | 50.67806 | -104.83119 | 5116 ft | 118 kts | 186° |
| 2026-04-29 01:16 | 50.66990 | -104.83272 | 5113 ft | 118 kts | 187° |
| 2026-04-29 01:16 | 50.66145 | -104.83441 | 5036 ft | 123 kts | 188° |
| 2026-04-29 01:16 | 50.65303 | -104.83612 | 4988 ft | 121 kts | 188° |
| 2026-04-29 01:17 | 50.64466 | -104.83782 | 4983 ft | 118 kts | 188° |
| 2026-04-29 01:17 | 50.63647 | -104.83950 | 4977 ft | 117 kts | 188° |
| 2026-04-29 01:17 | 50.62840 | -104.84116 | 4971 ft | 116 kts | 188° |
| 2026-04-29 01:17 | 50.62037 | -104.84282 | 4963 ft | 116 kts | 188° |
| 2026-04-29 01:18 | 50.61227 | -104.84383 | 4977 ft | 113 kts | 178° |
| 2026-04-29 01:18 | 50.59639 | -104.84190 | 4971 ft | 114 kts | 173° |
| 2026-04-29 01:18 | 50.58874 | -104.83879 | 4965 ft | 114 kts | 161° |
| 2026-04-29 01:19 | 50.58126 | -104.83437 | 4987 ft | 112 kts | 151° |
| 2026-04-29 01:19 | 50.57470 | -104.82767 | 4988 ft | 111 kts | 133° |
| 2026-04-29 01:19 | 50.57075 | -104.81786 | 5064 ft | 100 kts | 101° |
| 2026-04-29 01:19 | 50.56975 | -104.80737 | 5080 ft | 99 kts | 78° |
| 2026-04-29 01:20 | 50.57290 | -104.79794 | 5066 ft | 96 kts | 34° |
| 2026-04-29 01:20 | 50.57903 | -104.79420 | 5050 ft | 95 kts | 5° |
| 2026-04-29 01:20 | 50.58566 | -104.79316 | 5050 ft | 96 kts | 2° |
| 2026-04-29 01:20 | 50.59229 | -104.79218 | 5051 ft | 96 kts | 9° |
| 2026-04-29 01:21 | 50.59889 | -104.78898 | 5046 ft | 96 kts | 11° |
| 2026-04-29 01:21 | 50.60554 | -104.78693 | 5045 ft | 97 kts | 7° |
| 2026-04-29 01:21 | 50.61222 | -104.78567 | 5051 ft | 96 kts | 4° |
| 2026-04-29 01:21 | 50.61887 | -104.78462 | 5056 ft | 96 kts | 2° |
| 2026-04-29 01:22 | 50.62569 | -104.78395 | 5063 ft | 96 kts | 3° |
| 2026-04-29 01:22 | 50.63229 | -104.78308 | 5062 ft | 96 kts | 2° |
| 2026-04-29 01:22 | 50.63892 | -104.78199 | 5061 ft | 97 kts | 11° |
| 2026-04-29 01:22 | 50.64497 | -104.77696 | 5051 ft | 99 kts | 36° |
| 2026-04-29 01:23 | 50.64914 | -104.76808 | 5028 ft | 104 kts | 58° |
| 2026-04-29 01:23 | 50.65153 | -104.75729 | 5050 ft | 104 kts | 73° |
| 2026-04-29 01:23 | 50.65145 | -104.74545 | 5007 ft | 111 kts | 97° |
| 2026-04-29 01:23 | 50.64952 | -104.73383 | 5032 ft | 109 kts | 102° |
| 2026-04-29 01:24 | 50.64735 | -104.72178 | 5008 ft | 110 kts | 102° |
| 2026-04-29 01:24 | 50.64489 | -104.71051 | 5005 ft | 109 kts | 96° |
| 2026-04-29 01:24 | 50.64445 | -104.69862 | 4995 ft | 107 kts | 84° |
| 2026-04-29 01:24 | 50.64440 | -104.68697 | 4989 ft | 107 kts | 86° |
| 2026-04-29 01:25 | 50.64357 | -104.67511 | 4975 ft | 108 kts | 91° |
| 2026-04-29 01:25 | 50.64330 | -104.66329 | 4972 ft | 107 kts | 87° |
| 2026-04-29 01:25 | 50.64406 | -104.65173 | 4946 ft | 106 kts | 75° |
| 2026-04-29 01:25 | 50.64601 | -104.64088 | 4949 ft | 104 kts | 73° |
| 2026-04-29 01:26 | 50.64693 | -104.62915 | 4925 ft | 106 kts | 76° |
| 2026-04-29 01:26 | 50.64802 | -104.61778 | 4939 ft | 105 kts | 75° |
| 2026-04-29 01:26 | 50.64878 | -104.60614 | 4916 ft | 109 kts | 88° |
| 2026-04-29 01:26 | 50.64658 | -104.59465 | 4908 ft | 112 kts | 115° |
| 2026-04-29 01:27 | 50.64135 | -104.58526 | 4911 ft | 114 kts | 137° |
| 2026-04-29 01:27 | 50.63503 | -104.57785 | 4944 ft | 111 kts | 141° |
| 2026-04-29 01:27 | 50.62839 | -104.57131 | 4931 ft | 114 kts | 149° |
| 2026-04-29 01:27 | 50.62118 | -104.56597 | 4949 ft | 113 kts | 159° |
| 2026-04-29 01:28 | 50.61375 | -104.56143 | 4908 ft | 115 kts | 145° |
| 2026-04-29 01:28 | 50.60657 | -104.55619 | 4920 ft | 114 kts | 167° |
| 2026-04-29 01:28 | 50.59887 | -104.55254 | 4900 ft | 114 kts | 151° |
| 2026-04-29 01:28 | 50.59208 | -104.54627 | 4918 ft | 112 kts | 141° |
| 2026-04-29 01:29 | 50.58548 | -104.53913 | 4885 ft | 115 kts | 142° |
| 2026-04-29 01:29 | 50.57930 | -104.53107 | 4874 ft | 114 kts | 140° |
| 2026-04-29 01:29 | 50.57237 | -104.52479 | 4854 ft | 116 kts | 151° |
| 2026-04-29 01:29 | 50.56524 | -104.51922 | 4862 ft | 114 kts | 150° |
| 2026-04-29 01:30 | 50.55788 | -104.51365 | 4819 ft | 117 kts | 153° |
| 2026-04-29 01:30 | 50.55005 | -104.50922 | 4675 ft | 123 kts | 161° |
| 2026-04-29 01:30 | 50.54176 | -104.50571 | 4583 ft | 122 kts | 165° |
| 2026-04-29 01:30 | 50.53337 | -104.50299 | 4451 ft | 123 kts | 168° |
| 2026-04-29 01:31 | 50.52486 | -104.50098 | 4332 ft | 123 kts | 169° |
| 2026-04-29 01:31 | 50.51654 | -104.49795 | 4242 ft | 122 kts | 161° |
| 2026-04-29 01:31 | 50.50855 | -104.49385 | 4187 ft | 121 kts | 156° |
| 2026-04-29 01:31 | 50.50082 | -104.48869 | 4130 ft | 119 kts | 150° |
| 2026-04-29 01:32 | 50.49330 | -104.48257 | 4060 ft | 120 kts | 147° |
| 2026-04-29 01:32 | 50.48590 | -104.47665 | 4012 ft | 117 kts | 151° |
| 2026-04-29 01:32 | 50.47842 | -104.47123 | 3960 ft | 118 kts | 153° |
| 2026-04-29 01:32 | 50.47074 | -104.46663 | 3941 ft | 118 kts | 155° |
| 2026-04-29 01:33 | 50.46259 | -104.46125 | 3959 ft | 116 kts | 152° |
| 2026-04-29 01:33 | 50.45532 | -104.45562 | 3975 ft | 115 kts | 151° |
| 2026-04-29 01:33 | 50.44785 | -104.45062 | 3968 ft | 116 kts | 149° |
| 2026-04-29 01:33 | 50.44049 | -104.44559 | 3982 ft | 115 kts | 153° |
| 2026-04-29 01:34 | 50.43325 | -104.43996 | 3979 ft | 115 kts | 147° |
| 2026-04-29 01:34 | 50.42632 | -104.43400 | 4002 ft | 115 kts | 147° |
| 2026-04-29 01:34 | 50.41911 | -104.42828 | 3992 ft | 116 kts | 148° |
| 2026-04-29 01:34 | 50.41191 | -104.42257 | 4012 ft | 115 kts | 149° |
| 2026-04-29 01:35 | 50.40461 | -104.41711 | 3999 ft | 117 kts | 150° |
| 2026-04-29 01:35 | 50.39738 | -104.41120 | 4008 ft | 116 kts | 147° |
| 2026-04-29 01:35 | 50.39019 | -104.40498 | 3994 ft | 117 kts | 147° |
| 2026-04-29 01:35 | 50.38307 | -104.39884 | 4005 ft | 116 kts | 147° |
| 2026-04-29 01:36 | 50.37563 | -104.39309 | 4003 ft | 117 kts | 150° |
| 2026-04-29 01:36 | 50.36828 | -104.38745 | 3994 ft | 117 kts | 148° |
| 2026-04-29 01:36 | 50.36081 | -104.38251 | 3973 ft | 119 kts | 163° |
| 2026-04-29 01:36 | 50.35253 | -104.38185 | 4001 ft | 117 kts | 185° |
| 2026-04-29 01:37 | 50.34474 | -104.38619 | 3984 ft | 119 kts | 212° |
| 2026-04-29 01:37 | 50.33892 | -104.39500 | 3982 ft | 116 kts | 243° |
| 2026-04-29 01:37 | 50.33588 | -104.40655 | 4003 ft | 113 kts | 251° |
| 2026-04-29 01:37 | 50.33255 | -104.41811 | 3966 ft | 117 kts | 245° |
| 2026-04-29 01:38 | 50.32813 | -104.42884 | 3979 ft | 116 kts | 236° |
| 2026-04-29 01:38 | 50.32305 | -104.43874 | 3969 ft | 117 kts | 231° |
| 2026-04-29 01:38 | 50.31730 | -104.44804 | 3971 ft | 118 kts | 226° |
| 2026-04-29 01:38 | 50.31150 | -104.45704 | 3985 ft | 117 kts | 226° |
| 2026-04-29 01:39 | 50.30582 | -104.46656 | 3949 ft | 118 kts | 240° |
| 2026-04-29 01:39 | 50.30315 | -104.47868 | 3925 ft | 115 kts | 263° |
| 2026-04-29 01:39 | 50.30360 | -104.49060 | 3933 ft | 109 kts | 292° |
| 2026-04-29 01:39 | 50.30793 | -104.50015 | 3909 ft | 106 kts | 322° |
| 2026-04-29 01:40 | 50.31410 | -104.50626 | 3919 ft | 102 kts | 336° |
| 2026-04-29 01:40 | 50.32049 | -104.51073 | 3945 ft | 100 kts | 338° |
| 2026-04-29 01:40 | 50.32676 | -104.51578 | 3936 ft | 102 kts | 332° |
| 2026-04-29 01:40 | 50.33249 | -104.52264 | 3968 ft | 101 kts | 322° |
| 2026-04-29 01:41 | 50.33775 | -104.53007 | 3958 ft | 103 kts | 321° |
| 2026-04-29 01:41 | 50.34308 | -104.53758 | 3974 ft | 102 kts | 322° |
| 2026-04-29 01:41 | 50.34841 | -104.54501 | 3967 ft | 103 kts | 321° |
| 2026-04-29 01:41 | 50.35371 | -104.55276 | 3892 ft | 106 kts | 320° |
| 2026-04-29 01:42 | 50.35927 | -104.56052 | 3796 ft | 106 kts | 323° |
| 2026-04-29 01:42 | 50.36520 | -104.56799 | 3630 ft | 111 kts | 325° |
| 2026-04-29 01:42 | 50.37118 | -104.57571 | 3501 ft | 112 kts | 323° |
| 2026-04-29 01:42 | 50.37720 | -104.58396 | 3295 ft | 116 kts | 322° |
| 2026-04-29 01:43 | 50.38316 | -104.59269 | 3104 ft | 117 kts | 320° |
| 2026-04-29 01:43 | 50.38923 | -104.60126 | 2903 ft | 116 kts | 322° |
| 2026-04-29 01:43 | 50.39531 | -104.60912 | 2721 ft | 113 kts | 324° |
| 2026-04-29 01:43 | 50.40113 | -104.61750 | 2570 ft | 107 kts | 319° |
| 2026-04-29 01:44 | 50.40647 | -104.62520 | 2416 ft | 102 kts | 323° |
| 2026-04-29 01:44 | 50.41201 | -104.63259 | 2256 ft | 111 kts | 321° |
| 2026-04-29 01:44 | 50.41713 | -104.64067 | 2490 ft | 97 kts | 313° |
| 2026-04-29 01:44 | 50.42088 | -104.64872 | 2706 ft | 92 kts | 308° |
| 2026-04-29 01:45 | 50.42458 | -104.65717 | 2859 ft | 93 kts | 313° |
| 2026-04-29 01:45 | 50.42910 | -104.66365 | 3045 ft | 87 kts | 329° |
| 2026-04-29 01:45 | 50.43418 | -104.66878 | 3241 ft | 84 kts | 330° |
| 2026-04-29 01:45 | 50.43876 | -104.67380 | 3476 ft | 77 kts | 328° |
| 2026-04-29 01:46 | 50.44296 | -104.67926 | 3629 ft | 82 kts | 322° |
| 2026-04-29 01:46 | 50.44739 | -104.68504 | 3813 ft | 81 kts | 325° |
| 2026-04-29 01:46 | 50.45177 | -104.69048 | 4015 ft | 78 kts | 323° |
| 2026-04-29 01:46 | 50.45640 | -104.69564 | 4171 ft | 81 kts | 327° |
| 2026-04-29 01:47 | 50.46101 | -104.70069 | 4345 ft | 82 kts | 326° |
| 2026-04-29 01:47 | 50.46507 | -104.70711 | 4481 ft | 86 kts | 319° |
| 2026-04-29 01:47 | 50.46937 | -104.71338 | 4673 ft | 81 kts | 313° |
| 2026-04-29 01:47 | 50.47349 | -104.72018 | 4788 ft | 86 kts | 319° |
| 2026-04-29 01:48 | 50.47763 | -104.72670 | 4990 ft | 82 kts | 316° |
| 2026-04-29 01:48 | 50.48220 | -104.73302 | 5015 ft | 95 kts | 322° |
| 2026-04-29 01:48 | 50.48694 | -104.74136 | 4997 ft | 106 kts | 304° |
| 2026-04-29 01:48 | 50.49072 | -104.75156 | 4996 ft | 110 kts | 302° |
| 2026-04-29 01:49 | 50.49561 | -104.76096 | 4988 ft | 111 kts | 316° |
| 2026-04-29 01:49 | 50.50109 | -104.76962 | 4982 ft | 112 kts | 317° |
| 2026-04-29 01:49 | 50.50666 | -104.77823 | 4975 ft | 112 kts | 317° |
| 2026-04-29 01:49 | 50.51218 | -104.78692 | 4967 ft | 108 kts | 315° |
| 2026-04-29 01:50 | 50.51446 | -104.79825 | 4452 ft | 127 kts | 261° |
| 2026-04-29 01:50 | 50.50774 | -104.80701 | 3915 ft | 130 kts | 189° |
| 2026-04-29 01:50 | 50.50019 | -104.80248 | 3673 ft | 119 kts | 135° |
| 2026-04-29 01:50 | 50.49404 | -104.79330 | 3507 ft | 118 kts | 131° |
| 2026-04-29 01:51 | 50.48789 | -104.78468 | 3406 ft | 116 kts | 137° |
| 2026-04-29 01:51 | 50.48138 | -104.77747 | 3350 ft | 112 kts | 141° |
| 2026-04-29 01:51 | 50.47490 | -104.77121 | 3367 ft | 106 kts | 143° |
| 2026-04-29 01:51 | 50.46871 | -104.76527 | 3498 ft | 98 kts | 142° |
| 2026-04-29 01:52 | 50.46222 | -104.75942 | 3362 ft | 110 kts | 146° |
| 2026-04-29 01:52 | 50.45566 | -104.75364 | 3342 ft | 106 kts | 144° |
| 2026-04-29 01:52 | 50.44890 | -104.74879 | 3305 ft | 106 kts | 152° |
| 2026-04-29 01:52 | 50.44249 | -104.74322 | 3287 ft | 104 kts | 144° |
| 2026-04-29 01:53 | 50.43637 | -104.73697 | 3240 ft | 104 kts | 136° |
| 2026-04-29 01:53 | 50.43119 | -104.72928 | 3208 ft | 102 kts | 127° |
| 2026-04-29 01:53 | 50.42597 | -104.72170 | 3107 ft | 101 kts | 131° |
| 2026-04-29 01:53 | 50.42074 | -104.71384 | 2975 ft | 102 kts | 130° |
| 2026-04-29 01:54 | 50.41575 | -104.70604 | 2888 ft | 102 kts | 126° |
| 2026-04-29 01:54 | 50.41091 | -104.69776 | 2901 ft | 101 kts | 127° |
| 2026-04-29 01:54 | 50.40667 | -104.68897 | 2926 ft | 100 kts | 116° |
| 2026-04-29 01:54 | 50.40271 | -104.67988 | 2944 ft | 103 kts | 121° |
| 2026-04-29 01:55 | 50.39833 | -104.67085 | 2976 ft | 101 kts | 120° |
| 2026-04-29 01:55 | 50.39418 | -104.66188 | 2942 ft | 104 kts | 121° |
| 2026-04-29 01:55 | 50.38950 | -104.65300 | 2920 ft | 104 kts | 124° |
| 2026-04-29 01:55 | 50.38560 | -104.64423 | 2947 ft | 86 kts | 96° |
| 2026-04-29 01:56 | 50.38706 | -104.63605 | 2867 ft | 80 kts | 59° |
| 2026-04-29 01:56 | 50.38950 | -104.62874 | 2857 ft | 69 kts | 55° |
| 2026-04-29 01:56 | 50.39240 | -104.62312 | 2788 ft | 63 kts | 24° |
| 2026-04-29 01:56 | 50.39671 | -104.62447 | 2693 ft | 65 kts | 342° |
| 2026-04-29 01:57 | 50.40101 | -104.62656 | 2610 ft | 64 kts | 351° |
| 2026-04-29 01:57 | 50.40529 | -104.62817 | 2542 ft | 63 kts | 348° |
| 2026-04-29 01:57 | 50.40942 | -104.63075 | 2469 ft | 63 kts | 331° |
| 2026-04-29 01:57 | 50.41290 | -104.63502 | 2387 ft | 59 kts | 321° |
| 2026-04-29 01:58 | 50.41620 | -104.63933 | 2273 ft | 64 kts | 327° |
| 2026-04-29 01:58 | 50.41976 | -104.64397 | 2125 ft | 69 kts | 324° |
| 2026-04-29 01:58 | 50.42342 | -104.64877 | 1957 ft | 65 kts | 317° |
| 2026-04-29 01:58 | 50.42632 | -104.65288 | 1890 ft | 30 kts | 318° |
| 2026-04-29 01:59 | 50.42696 | -104.65374 | 1890 ft | 0 kts | 321° |
| 2026-04-29 01:59 | 50.42850 | -104.65587 | 1890 ft | 56 kts | 319° |
| 2026-04-29 01:59 | 50.43232 | -104.66111 | 1927 ft | 82 kts | 321° |
| 2026-04-29 01:59 | 50.43635 | -104.66721 | 2169 ft | 79 kts | 317° |
| 2026-04-29 02:00 | 50.44034 | -104.67368 | 2337 ft | 82 kts | 314° |
| 2026-04-29 02:00 | 50.44432 | -104.67978 | 2543 ft | 81 kts | 319° |
| 2026-04-29 02:00 | 50.44589 | -104.68861 | 2693 ft | 95 kts | 260° |
| 2026-04-29 02:00 | 50.44283 | -104.69815 | 2863 ft | 100 kts | 237° |
| 2026-04-29 02:01 | 50.43815 | -104.70611 | 2977 ft | 102 kts | 213° |
| 2026-04-29 02:01 | 50.43150 | -104.70673 | 3023 ft | 98 kts | 148° |
| 2026-04-29 02:01 | 50.42642 | -104.70013 | 3093 ft | 93 kts | 121° |
| 2026-04-29 02:01 | 50.42217 | -104.69218 | 3137 ft | 96 kts | 130° |
| 2026-04-29 02:02 | 50.41623 | -104.68632 | 3101 ft | 104 kts | 147° |
| 2026-04-29 02:02 | 50.40971 | -104.68083 | 3041 ft | 107 kts | 145° |
| 2026-04-29 02:02 | 50.40339 | -104.67480 | 2990 ft | 108 kts | 143° |
| 2026-04-29 02:02 | 50.39685 | -104.66824 | 2924 ft | 110 kts | 142° |
| 2026-04-29 02:03 | 50.39045 | -104.66180 | 2926 ft | 109 kts | 141° |
| 2026-04-29 02:03 | 50.38405 | -104.65483 | 2888 ft | 110 kts | 136° |
| 2026-04-29 02:03 | 50.37818 | -104.64744 | 2894 ft | 105 kts | 130° |
| 2026-04-29 02:03 | 50.37622 | -104.63866 | 2888 ft | 74 kts | 64° |
| 2026-04-29 02:04 | 50.37932 | -104.63291 | 2809 ft | 65 kts | 38° |
| 2026-04-29 02:04 | 50.38286 | -104.62815 | 2695 ft | 68 kts | 39° |
| 2026-04-29 02:04 | 50.38640 | -104.62331 | 2606 ft | 67 kts | 38° |
| 2026-04-29 02:04 | 50.39011 | -104.61874 | 2566 ft | 65 kts | 34° |
| 2026-04-29 02:05 | 50.39411 | -104.61494 | 2520 ft | 67 kts | 18° |
| 2026-04-29 02:05 | 50.39875 | -104.61594 | 2512 ft | 70 kts | 336° |
| 2026-04-29 02:05 | 50.40264 | -104.62032 | 2492 ft | 66 kts | 322° |
| 2026-04-29 02:05 | 50.40615 | -104.62498 | 2450 ft | 64 kts | 326° |
| 2026-04-29 02:06 | 50.40972 | -104.62968 | 2353 ft | 67 kts | 322° |
| 2026-04-29 02:06 | 50.41319 | -104.63449 | 2252 ft | 66 kts | 324° |
| 2026-04-29 02:06 | 50.41667 | -104.63930 | 2178 ft | 65 kts | 323° |
| 2026-04-29 02:06 | 50.42016 | -104.64418 | 2075 ft | 67 kts | 322° |
| 2026-04-29 02:07 | 50.42366 | -104.64902 | 1957 ft | 67 kts | 317° |
| 2026-04-29 02:07 | 50.42704 | -104.65385 | 1895 ft | 61 kts | 312° |
| 2026-04-29 02:07 | 50.42987 | -104.65785 | 1887 ft | 46 kts | 319° |
| 2026-04-29 02:07 | 50.43294 | -104.66222 | 1887 ft | 75 kts | 318° |
| 2026-04-29 02:08 | 50.43709 | -104.66854 | 2019 ft | 83 kts | 309° |
| 2026-04-29 02:08 | 50.44022 | -104.67482 | 2299 ft | 74 kts | 308° |
| 2026-04-29 02:08 | 50.44337 | -104.68149 | 2488 ft | 76 kts | 308° |
| 2026-04-29 02:08 | 50.44685 | -104.68802 | 2686 ft | 77 kts | 300° |
| 2026-04-29 02:09 | 50.44986 | -104.69528 | 2875 ft | 78 kts | 303° |
| 2026-04-29 02:09 | 50.45197 | -104.70309 | 3046 ft | 83 kts | 300° |
| 2026-04-29 02:09 | 50.45213 | -104.71232 | 3113 ft | 100 kts | 228° |
| 2026-04-29 02:09 | 50.44595 | -104.71888 | 3096 ft | 108 kts | 207° |
| 2026-04-29 02:10 | 50.43940 | -104.72420 | 3155 ft | 107 kts | 204° |
| 2026-04-29 02:10 | 50.43280 | -104.72224 | 3120 ft | 103 kts | 127° |
| 2026-04-29 02:10 | 50.42751 | -104.71571 | 3149 ft | 100 kts | 142° |
| 2026-04-29 02:10 | 50.42134 | -104.70981 | 3122 ft | 100 kts | 143° |
| 2026-04-29 02:11 | 50.41533 | -104.70427 | 3083 ft | 102 kts | 144° |
| 2026-04-29 02:11 | 50.40931 | -104.69843 | 3062 ft | 100 kts | 138° |
| 2026-04-29 02:11 | 50.40359 | -104.69198 | 3034 ft | 100 kts | 138° |
| 2026-04-29 02:11 | 50.39790 | -104.68539 | 3001 ft | 101 kts | 137° |
| 2026-04-29 02:12 | 50.39223 | -104.67876 | 2974 ft | 101 kts | 137° |
| 2026-04-29 02:12 | 50.38661 | -104.67222 | 2941 ft | 101 kts | 135° |
| 2026-04-29 02:12 | 50.38147 | -104.66473 | 2918 ft | 99 kts | 126° |
| 2026-04-29 02:12 | 50.37722 | -104.65659 | 2907 ft | 88 kts | 104° |
| 2026-04-29 02:13 | 50.37878 | -104.64907 | 2862 ft | 71 kts | 43° |
| 2026-04-29 02:13 | 50.38237 | -104.64440 | 2849 ft | 60 kts | 30° |
| 2026-04-29 02:13 | 50.38610 | -104.64092 | 2770 ft | 63 kts | 29° |
| 2026-04-29 02:13 | 50.38988 | -104.63754 | 2698 ft | 65 kts | 27° |
| 2026-04-29 02:14 | 50.39382 | -104.63406 | 2631 ft | 64 kts | 27° |
| 2026-04-29 02:14 | 50.39778 | -104.63055 | 2557 ft | 64 kts | 27° |
| 2026-04-29 02:14 | 50.40195 | -104.62760 | 2462 ft | 66 kts | 20° |
| 2026-04-29 02:14 | 50.40653 | -104.62833 | 2398 ft | 67 kts | 339° |
| 2026-04-29 02:15 | 50.41064 | -104.63191 | 2332 ft | 68 kts | 331° |
| 2026-04-29 02:15 | 50.41448 | -104.63642 | 2266 ft | 69 kts | 322° |
| 2026-04-29 02:15 | 50.41804 | -104.64131 | 2172 ft | 63 kts | 326° |
| 2026-04-29 02:15 | 50.42125 | -104.64578 | 2040 ft | 62 kts | 323° |
| 2026-04-29 02:16 | 50.42448 | -104.65021 | 1912 ft | 60 kts | 314° |
| 2026-04-29 02:16 | 50.42723 | -104.65410 | 1890 ft | 45 kts | 319° |
| 2026-04-29 02:16 | 50.43030 | -104.65842 | 1888 ft | 77 kts | 317° |
| 2026-04-29 02:16 | 50.43448 | -104.66470 | 2045 ft | 84 kts | 317° |
| 2026-04-29 02:17 | 50.43835 | -104.67125 | 2265 ft | 81 kts | 314° |
| 2026-04-29 02:17 | 50.44210 | -104.67800 | 2469 ft | 81 kts | 314° |
| 2026-04-29 02:17 | 50.44607 | -104.68465 | 2627 ft | 86 kts | 314° |
| 2026-04-29 02:17 | 50.44886 | -104.69294 | 2824 ft | 90 kts | 282° |
| 2026-04-29 02:18 | 50.44696 | -104.70243 | 2935 ft | 99 kts | 230° |
| 2026-04-29 02:18 | 50.44181 | -104.70991 | 2979 ft | 102 kts | 213° |
| 2026-04-29 02:18 | 50.43590 | -104.71603 | 3046 ft | 102 kts | 212° |
| 2026-04-29 02:18 | 50.42918 | -104.71718 | 3107 ft | 98 kts | 151° |
| 2026-04-29 02:19 | 50.42322 | -104.71189 | 3142 ft | 99 kts | 144° |
| 2026-04-29 02:19 | 50.41740 | -104.70611 | 3185 ft | 99 kts | 137° |
| 2026-04-29 02:19 | 50.41199 | -104.69946 | 3186 ft | 99 kts | 136° |
| 2026-04-29 02:19 | 50.40620 | -104.69309 | 3178 ft | 99 kts | 137° |
| 2026-04-29 02:20 | 50.40052 | -104.68689 | 3153 ft | 101 kts | 139° |
| 2026-04-29 02:20 | 50.39454 | -104.68098 | 3127 ft | 101 kts | 141° |
| 2026-04-29 02:20 | 50.38858 | -104.67513 | 3111 ft | 100 kts | 141° |
| 2026-04-29 02:20 | 50.38279 | -104.66868 | 3073 ft | 101 kts | 137° |
| 2026-04-29 02:21 | 50.37712 | -104.66219 | 3063 ft | 101 kts | 138° |
| 2026-04-29 02:21 | 50.37094 | -104.65668 | 3032 ft | 104 kts | 151° |
| 2026-04-29 02:21 | 50.36455 | -104.65188 | 3023 ft | 101 kts | 140° |
| 2026-04-29 02:21 | 50.36051 | -104.64323 | 2946 ft | 97 kts | 92° |
| 2026-04-29 02:22 | 50.36168 | -104.63322 | 2971 ft | 85 kts | 68° |
| 2026-04-29 02:22 | 50.36437 | -104.62503 | 2929 ft | 87 kts | 43° |
| 2026-04-29 02:22 | 50.36921 | -104.61985 | 2917 ft | 87 kts | 27° |
| 2026-04-29 02:22 | 50.37473 | -104.61577 | 2872 ft | 83 kts | 22° |
| 2026-04-29 02:23 | 50.37983 | -104.61330 | 2774 ft | 73 kts | 14° |
| 2026-04-29 02:23 | 50.38467 | -104.61347 | 2698 ft | 64 kts | 354° |
| 2026-04-29 02:23 | 50.38900 | -104.61546 | 2621 ft | 64 kts | 346° |
| 2026-04-29 02:23 | 50.39318 | -104.61789 | 2591 ft | 61 kts | 346° |
| 2026-04-29 02:24 | 50.39727 | -104.62058 | 2563 ft | 63 kts | 338° |
| 2026-04-29 02:24 | 50.40123 | -104.62402 | 2527 ft | 66 kts | 336° |
| 2026-04-29 02:24 | 50.40516 | -104.62779 | 2487 ft | 67 kts | 333° |
| 2026-04-29 02:25 | 50.41318 | -104.63561 | 2373 ft | 69 kts | 331° |
| 2026-04-29 02:25 | 50.41710 | -104.64014 | 2251 ft | 70 kts | 328° |
| 2026-04-29 02:25 | 50.42074 | -104.64510 | 2072 ft | 68 kts | 321° |
| 2026-04-29 02:25 | 50.42432 | -104.65000 | 1913 ft | 68 kts | 317° |
| 2026-04-29 02:26 | 50.42766 | -104.65475 | 1890 ft | 57 kts | 321° |
| 2026-04-29 02:26 | 50.42942 | -104.65684 | 1888 ft | 16 kts | 354° |
| 2026-04-29 02:26 | 50.43069 | -104.65610 | 1887 ft | 21 kts | 27° |